KEWK/EWK METAR and TAF weather

Enter ICAO airport designator
Station Type Date Time Source
KEWK METAR 2019/02/20 07:13 UTC NOAA

KEWK 200713Z AUTO 17003KT 1 1/2SM -SN BR FEW011 OVC019 M04/M04 A2985 RMK AO2 P0000 FZRANO


Station Type Date Time Source
KEWK Decoded METAR 2019/02/20 07:13 UTC NOAA

Newton, Newton City/County Airport, KS, United States (KEWK) 38-03N 097-17W
Feb 20, 2019 - 02:13 AM EST / 2019.02.20 0713 UTC
Wind: from the S (170 degrees) at 3 MPH (3 KT):0
Visibility: 1 1/2 mile(s):0
Sky conditions: overcast
Weather: light snow; mist
Precipitation last hour: A trace
Temperature: 24 F (-4 C)
Dew Point: 24 F (-4 C)
Relative Humidity: 100%
Pressure (altimeter): 29.85 in. Hg (1010 hPa)
ob: KEWK 200713Z AUTO 17003KT 1 1/2SM -SN BR FEW011 OVC019 M04/M04 A2985 RMK AO2 P0000 FZRANO
cycle: 7

Station Type Date Time Source
KEWK TAF UTC NOAA

Error!


Example: see airport list